Página principal
METAR-TAF:

METAR-TAF

Aeroportos :

Kingston, Jamaica

Aeroporto Internacional Norman Manley

latitude: 17-56N, longitude: 076-47W, altura: 3 m

Observação actual do tempo

O boletim foi feito há 16 minutos, às 13:00 UTC
Vento 5 kt de nor-noroeste
Temperatura 28°C
Humidade 74%
Pressão 1015 hPa
Visibilidade 10 km ou mais
Poucas nuvensa uma altura de 2200 ft

METAR: MKJP 211300Z 33005KT 9999 FEW022 28/23 Q1015

Hora: 08:16 (13:16 UTC)

Previsão

O boletim foi feito há 2 horas e 1 minutos, às 11:15 UTC
Previsão válida de 21 às 12 UTC a 22 às 12 UTC
Vento 20 kt de sudeste
Visibilidade 10 km ou mais
Nuvens dispersasa uma altura de 2000 ft
Poucas nuvensa uma altura de 2200 ft, Cumulonimbus.
Tornando-se
de 22 às 01 UTC a 22 às 03 UTC
Vento 5 kt de norte
Poucas nuvensa uma altura de 2200 ft

TAF: MKJP 211115Z 2112/2212 14020KT 9999 SCT020 FEW022CB BECMG 2201/2203 36005KT FEW022

Observações e previsões do tempo de mais de 4000 aeroportos (mensagens METAR e TAF).

As estações disponíveis são os pontos amarelos e vermelhos sobre o mapa.

Mova o rato sobre o mapa para ver o nome da estação.

Depois clique no ponto para visualizar as observações e previsões meteorológicas.

Para alterar o mapa : clique nos botões verdes com uma cruz preta para aumentar o zoom; no botão verde com uma pitada de zoom; ou nas setas verdes para mapas adjacentes.


METAR-TAF: